Time;durP1;ratioP1;P1;durP2;ratioP2;P2;SDS_P1;SDS_P2;PMS_P1;PMS_P2;Temp;Humidity;BMP_temperature;BMP_pressure;BME280_temperature;BME280_humidity;BME280_pressure;Samples;Min_cycle;Max_cycle;Signal;HPM_P1;HPM_P2
2021/09/08 00:00:25;;;;;;;;;;;;;;;9.07;62.02;102209.48;465422;112;921558;-81
2021/09/08 00:01:28;;;;;;;;;;;;;;;9.05;62.03;102203.34;465148;112;921475;-81
2021/09/08 00:02:32;;;;;;;;;;;;;;;9.04;62.04;102201.67;465449;112;921611;-81
2021/09/08 00:03:35;;;;;;;;;;;;;;;9.04;62.07;102207.11;465474;112;921514;-82
2021/09/08 00:04:38;;;;;;;;;;;;;;;9.03;62.16;102199.95;466158;112;921458;-81
2021/09/08 00:05:41;;;;;;;;;;;;;;;9.04;62.19;102201.67;465743;112;921463;-80
2021/09/08 00:06:44;;;;;;;;;;;;;;;9.02;62.21;102204.55;465717;112;921578;-82
2021/09/08 00:07:47;;;;;;;;;;;;;;;9.02;62.22;102206.41;464658;113;921692;-82
2021/09/08 00:08:51;;;;;;;;;;;;;;;9.01;62.32;102205.55;465520;112;921762;-81
2021/09/08 00:09:54;;;;;;;;;;;;;;;9.01;62.30;102207.42;466050;112;921491;-82
2021/09/08 00:10:57;;;;;;;;;;;;;;;9.01;62.31;102204.70;464895;114;921546;-80
2021/09/08 00:12:01;;;;;;;;;;;;;;;9.00;62.33;102211.15;465953;112;921467;-81
2021/09/08 00:13:04;;;;;;;;;;;;;;;8.99;62.31;102199.41;465300;112;921597;-81
2021/09/08 00:14:07;;;;;;;;;;;;;;;8.99;62.32;102206.72;465793;114;921535;-80
2021/09/08 00:15:11;;;;;;;;;;;;;;;8.98;62.37;102207.77;464957;113;921554;-81
2021/09/08 00:16:15;;;;;;;;;;;;;;;8.98;62.36;102210.48;465435;112;921475;-80
2021/09/08 00:17:18;;;;;;;;;;;;;;;8.98;62.44;102205.05;465509;112;921692;-81
2021/09/08 00:18:21;;;;;;;;;;;;;;;8.99;62.45;102209.44;466058;114;921542;-81
2021/09/08 00:19:25;;;;;;;;;;;;;;;8.98;62.40;102205.05;464701;112;921540;-81
2021/09/08 00:20:29;;;;;;;;;;;;;;;8.95;62.40;102206.21;465957;112;921661;-81
2021/09/08 00:21:32;;;;;;;;;;;;;;;8.93;62.45;102210.95;465926;112;921499;-80
2021/09/08 00:22:35;;;;;;;;;;;;;;;8.93;62.48;102204.69;466205;114;921338;-81
2021/09/08 00:23:38;;;;;;;;;;;;;;;8.93;62.51;102207.41;466014;112;921586;-81
2021/09/08 00:24:42;;;;;;;;;;;;;;;8.92;62.52;102208.42;466074;112;922041;-81
2021/09/08 00:25:45;;;;;;;;;;;;;;;8.90;62.41;102214.02;465993;112;921576;-80
2021/09/08 00:26:49;;;;;;;;;;;;;;;8.88;62.41;102209.73;447789;116;921618;-81
2021/09/08 00:27:53;;;;;;;;;;;;;;;8.85;62.34;102215.52;449189;114;921795;-81
2021/09/08 00:28:56;;;;;;;;;;;;;;;8.83;62.31;102217.54;467725;111;921854;-80
2021/09/08 00:29:59;;;;;;;;;;;;;;;8.83;62.23;102220.27;468275;113;921483;-81
2021/09/08 00:31:02;;;;;;;;;;;;;;;8.82;62.13;102215.86;468391;111;921598;-80
2021/09/08 00:32:06;;;;;;;;;;;;;;;8.81;62.16;102217.73;468693;111;921571;-81
2021/09/08 00:33:10;;;;;;;;;;;;;;;8.80;62.15;102213.30;468823;113;921514;-81
2021/09/08 00:34:17;;;;;;;;;;;;;;;8.78;62.23;102215.31;468526;113;921643;-81
2021/09/08 00:35:21;;;;;;;;;;;;;;;8.76;62.27;102215.50;468572;111;921562;-81
2021/09/08 00:36:25;;;;;;;;;;;;;;;8.75;62.37;102215.66;469519;111;921382;-80
2021/09/08 00:37:28;;;;;;;;;;;;;;;8.73;62.47;102207.66;469000;111;921774;-80
2021/09/08 00:38:33;;;;;;;;;;;;;;;8.74;62.53;102214.80;469487;113;921634;-81
2021/09/08 00:39:38;;;;;;;;;;;;;;;8.74;62.47;102217.52;469746;111;921557;-80
2021/09/08 00:40:41;;;;;;;;;;;;;;;8.73;62.53;102220.39;468776;111;921513;-81
2021/09/08 00:41:44;;;;;;;;;;;;;;;8.73;62.67;102223.97;469135;113;921581;-80
2021/09/08 00:42:47;;;;;;;;;;;;;;;8.74;62.78;102220.24;469473;111;921532;-81
2021/09/08 00:43:52;;;;;;;;;;;;;;;8.76;62.83;102220.09;468845;111;921644;-81
2021/09/08 00:44:55;;;;;;;;;;;;;;;8.78;62.72;102221.61;468675;111;921562;-80
2021/09/08 00:45:59;;;;;;;;;;;;;;;8.79;62.62;102225.19;469437;113;921566;-81
2021/09/08 00:47:03;;;;;;;;;;;;;;;8.78;62.50;102224.33;469603;113;921663;-81
2021/09/08 00:48:06;;;;;;;;;;;;;;;8.77;62.46;102219.91;469383;111;921485;-81
2021/09/08 00:49:11;;;;;;;;;;;;;;;8.74;62.46;102219.39;469302;111;921638;-81
2021/09/08 00:50:15;;;;;;;;;;;;;;;8.71;62.43;102217.83;469597;113;921947;-81
2021/09/08 00:51:19;;;;;;;;;;;;;;;8.68;62.44;102215.45;468783;111;921372;-80
2021/09/08 00:52:23;;;;;;;;;;;;;;;8.64;62.46;102218.66;467814;111;921402;-81
2021/09/08 00:53:28;;;;;;;;;;;;;;;8.63;62.53;102219.67;468084;113;921714;-81
2021/09/08 00:54:33;;;;;;;;;;;;;;;8.61;62.61;102218.97;469990;113;921560;-81
2021/09/08 00:55:38;;;;;;;;;;;;;;;8.61;62.60;102224.41;467857;111;921617;-81
2021/09/08 00:56:43;;;;;;;;;;;;;;;8.59;62.61;102221.02;468491;111;921697;-80
2021/09/08 00:57:49;;;;;;;;;;;;;;;8.56;62.69;102222.18;468645;113;921366;-81
2021/09/08 00:58:53;;;;;;;;;;;;;;;8.57;62.79;102223.03;468544;111;921429;-81
2021/09/08 00:59:56;;;;;;;;;;;;;;;8.57;62.92;102232.05;468108;111;921625;-81
2021/09/08 01:01:00;;;;;;;;;;;;;;;8.58;63.03;102230.19;468659;111;921782;-80
2021/09/08 01:02:04;;;;;;;;;;;;;;;8.59;63.01;102227.31;469423;111;921604;-81
2021/09/08 01:03:09;;;;;;;;;;;;;;;8.60;62.90;102226.27;468546;111;921732;-80
2021/09/08 01:04:14;;;;;;;;;;;;;;;8.64;62.81;102226.82;469686;111;921433;-81
2021/09/08 01:05:21;;;;;;;;;;;;;;;8.64;62.70;102227.67;469154;111;921498;-79
2021/09/08 01:06:24;;;;;;;;;;;;;;;8.66;62.61;102230.21;469674;113;921417;-81
2021/09/08 01:07:29;;;;;;;;;;;;;;;8.63;62.49;102239.56;469298;111;921592;-81
2021/09/08 01:08:34;;;;;;;;;;;;;;;8.64;62.42;102234.98;469579;111;921381;-83
2021/09/08 01:09:40;;;;;;;;;;;;;;;8.61;62.44;102236.14;469986;111;921631;-81
2021/09/08 01:10:45;;;;;;;;;;;;;;;8.60;62.42;102231.71;469271;113;921489;-80
2021/09/08 01:11:49;;;;;;;;;;;;;;;8.58;62.45;102232.91;470059;111;921510;-81
2021/09/08 01:12:54;;;;;;;;;;;;;;;8.57;62.45;102226.61;469335;111;921487;-81
2021/09/08 01:13:57;;;;;;;;;;;;;;;8.58;62.41;102222.88;470331;112;921426;-81
2021/09/08 01:15:02;;;;;;;;;;;;;;;8.59;62.39;102221.88;468487;112;921542;-80
2021/09/08 01:16:05;;;;;;;;;;;;;;;8.59;62.36;102226.45;467794;112;921598;-80
2021/09/08 01:17:09;;;;;;;;;;;;;;;8.57;62.33;102223.03;469151;111;921617;-81
2021/09/08 01:18:12;;;;;;;;;;;;;;;8.55;62.30;102234.06;467307;111;921684;-81
2021/09/08 01:19:15;;;;;;;;;;;;;;;8.52;62.33;102220.80;467886;111;921761;-81
2021/09/08 01:20:18;;;;;;;;;;;;;;;8.49;62.40;102231.98;467501;111;921623;-81
2021/09/08 01:21:22;;;;;;;;;;;;;;;8.47;62.46;102227.73;469272;111;921555;-81
2021/09/08 01:22:26;;;;;;;;;;;;;;;8.43;62.61;102224.50;468937;111;921670;-82
2021/09/08 01:23:30;;;;;;;;;;;;;;;8.40;62.65;102226.67;468589;111;921791;-80
2021/09/08 01:24:33;;;;;;;;;;;;;;;8.37;62.86;102222.42;469578;111;921614;-81
2021/09/08 01:25:36;;;;;;;;;;;;;;;8.35;62.93;102227.16;468727;111;921517;-81
2021/09/08 01:26:41;;;;;;;;;;;;;;;8.33;63.03;102221.02;469548;111;921687;-81
2021/09/08 01:27:45;;;;;;;;;;;;;;;8.29;63.04;102222.33;468891;113;921535;-81
2021/09/08 01:28:48;;;;;;;;;;;;;;;8.28;63.11;102226.05;466715;113;921639;-81
2021/09/08 01:29:52;;;;;;;;;;;;;;;8.27;63.12;102224.37;465603;114;921530;-80
2021/09/08 01:30:55;;;;;;;;;;;;;;;8.24;63.11;102222.81;465857;113;921558;-81
2021/09/08 01:31:59;;;;;;;;;;;;;;;8.21;63.17;102225.86;465495;112;921679;-81
2021/09/08 01:33:04;;;;;;;;;;;;;;;8.19;63.21;102225.16;465888;112;921541;-80
2021/09/08 01:34:07;;;;;;;;;;;;;;;8.18;63.30;102225.30;465837;113;921380;-81
2021/09/08 01:35:10;;;;;;;;;;;;;;;8.17;63.36;102226.31;465864;114;921519;-79
2021/09/08 01:36:14;;;;;;;;;;;;;;;8.16;63.39;102213.77;465723;112;921404;-81
2021/09/08 01:37:18;;;;;;;;;;;;;;;8.17;63.41;102215.44;466642;112;921497;-81
2021/09/08 01:38:22;;;;;;;;;;;;;;;8.18;63.44;102217.16;466834;114;921703;-81
2021/09/08 01:39:25;;;;;;;;;;;;;;;8.18;63.53;102228.88;466234;114;921217;-80
2021/09/08 01:40:28;;;;;;;;;;;;;;;8.19;63.55;102222.44;465669;112;921229;-80
2021/09/08 01:41:31;;;;;;;;;;;;;;;8.21;63.63;102214.14;466892;112;921461;-81
2021/09/08 01:42:35;;;;;;;;;;;;;;;8.21;63.60;102212.27;466579;114;921479;-82
2021/09/08 01:43:38;;;;;;;;;;;;;;;8.22;63.57;102215.81;465014;112;921916;-81
2021/09/08 01:44:41;;;;;;;;;;;;;;;8.23;63.64;102215.66;465349;112;921574;-81
2021/09/08 01:45:44;;;;;;;;;;;;;;;8.23;63.68;102212.09;466163;113;921509;-81
2021/09/08 01:46:52;;;;;;;;;;;;;;;8.26;63.70;102212.64;465012;114;921585;-81
2021/09/08 01:47:56;;;;;;;;;;;;;;;8.28;63.71;102216.03;466167;112;921622;-81
2021/09/08 01:48:59;;;;;;;;;;;;;;;8.31;63.60;102213.05;466086;113;921358;-81
2021/09/08 01:50:03;;;;;;;;;;;;;;;8.32;63.58;102217.44;466228;112;921770;-82
2021/09/08 01:51:06;;;;;;;;;;;;;;;8.33;63.52;102215.58;465442;112;921574;-81
2021/09/08 01:52:09;;;;;;;;;;;;;;;8.33;63.43;102215.58;465779;112;921512;-81
2021/09/08 01:53:12;;;;;;;;;;;;;;;8.30;63.37;102213.20;465253;114;921579;-82
2021/09/08 01:54:16;;;;;;;;;;;;;;;8.29;63.34;102208.73;465063;112;921576;-81
2021/09/08 01:55:19;;;;;;;;;;;;;;;8.29;63.33;102211.45;465386;112;921598;-81
2021/09/08 01:56:22;;;;;;;;;;;;;;;8.27;63.32;102211.61;465829;114;921525;-81
2021/09/08 01:57:25;;;;;;;;;;;;;;;8.27;63.29;102213.50;467360;112;921510;-80
2021/09/08 01:58:30;;;;;;;;;;;;;;;8.27;63.31;102208.06;465634;112;921466;-81
2021/09/08 01:59:35;;;;;;;;;;;;;;;8.25;63.36;102204.64;465156;112;921672;-82
2021/09/08 02:00:39;;;;;;;;;;;;;;;8.23;63.33;102204.80;464548;114;921605;-80
2021/09/08 02:01:42;;;;;;;;;;;;;;;8.22;63.37;102203.08;465312;113;921719;-80
2021/09/08 02:02:46;;;;;;;;;;;;;;;8.22;63.38;102210.38;465956;114;921625;-80
2021/09/08 02:03:49;;;;;;;;;;;;;;;8.21;63.43;102214.14;465354;112;921651;-80
2021/09/08 02:04:53;;;;;;;;;;;;;;;8.19;63.43;102205.28;466098;114;921567;-81
2021/09/08 02:05:56;;;;;;;;;;;;;;;8.16;63.42;102203.72;465512;112;921669;-81
2021/09/08 02:06:59;;;;;;;;;;;;;;;8.15;63.57;102206.62;465935;112;921593;-81
2021/09/08 02:08:02;;;;;;;;;;;;;;;8.14;63.63;102208.48;465600;112;922091;-80
2021/09/08 02:09:06;;;;;;;;;;;;;;;8.15;63.63;102212.05;465664;114;921529;-80
2021/09/08 02:10:10;;;;;;;;;;;;;;;8.15;63.70;102207.48;466316;112;921441;-81
2021/09/08 02:11:14;;;;;;;;;;;;;;;8.16;63.67;102211.05;465687;112;921512;-81
2021/09/08 02:12:17;;;;;;;;;;;;;;;8.16;63.59;102209.16;464881;112;921436;-80
2021/09/08 02:13:20;;;;;;;;;;;;;;;8.17;63.55;102207.30;446330;119;921493;-81
2021/09/08 02:14:23;;;;;;;;;;;;;;;8.17;63.51;102212.73;448213;117;921514;-80
2021/09/08 02:15:26;;;;;;;;;;;;;;;8.16;63.46;102211.05;443374;117;921703;-81
2021/09/08 02:16:30;;;;;;;;;;;;;;;8.15;63.37;102210.19;442848;118;921556;-81
2021/09/08 02:17:34;;;;;;;;;;;;;;;8.15;63.45;102201.19;450444;116;921584;-81
2021/09/08 02:18:37;;;;;;;;;;;;;;;8.15;63.39;102204.76;443829;118;921703;-80
2021/09/08 02:19:40;;;;;;;;;;;;;;;8.15;63.34;102206.62;444761;117;921692;-80
2021/09/08 02:20:44;;;;;;;;;;;;;;;8.14;63.27;102200.33;453408;115;921580;-80
2021/09/08 02:21:48;;;;;;;;;;;;;;;8.15;63.29;102212.05;452760;115;921602;-80
2021/09/08 02:22:51;;;;;;;;;;;;;;;8.13;63.26;102200.48;451948;115;921510;-82
2021/09/08 02:23:54;;;;;;;;;;;;;;;8.12;63.19;102206.92;452287;115;922027;-82
2021/09/08 02:24:57;;;;;;;;;;;;;;;8.10;63.20;102206.25;452431;116;921548;-80
2021/09/08 02:26:01;;;;;;;;;;;;;;;8.08;63.25;102209.11;451292;115;921584;-81
2021/09/08 02:27:04;;;;;;;;;;;;;;;8.07;63.34;102211.98;452959;115;921637;-81
2021/09/08 02:28:07;;;;;;;;;;;;;;;8.06;63.39;102213.84;452835;115;921503;-81
2021/09/08 02:29:11;;;;;;;;;;;;;;;8.07;63.50;102214.70;452436;117;921624;-82
2021/09/08 02:30:14;;;;;;;;;;;;;;;8.08;63.62;102210.98;451644;116;921728;-81
2021/09/08 02:31:18;;;;;;;;;;;;;;;8.10;63.60;102214.40;451311;118;921542;-81
2021/09/08 02:32:21;;;;;;;;;;;;;;;8.12;63.45;102210.49;451690;118;921572;-80
2021/09/08 02:33:25;;;;;;;;;;;;;;;8.15;63.36;102212.05;451333;118;921640;-80
2021/09/08 02:34:28;;;;;;;;;;;;;;;8.17;63.18;102210.01;451303;116;921756;-81
2021/09/08 02:35:31;;;;;;;;;;;;;;;8.21;63.06;102211.42;456404;115;921782;-80
2021/09/08 02:36:34;;;;;;;;;;;;;;;8.23;62.95;102215.66;465381;114;921514;-81
2021/09/08 02:37:37;;;;;;;;;;;;;;;8.26;62.86;102211.79;464322;113;921661;-81
2021/09/08 02:38:40;;;;;;;;;;;;;;;8.28;62.75;102210.59;463780;112;921727;-81
2021/09/08 02:39:43;;;;;;;;;;;;;;;8.29;62.58;102217.75;465026;112;921679;-81
2021/09/08 02:40:47;;;;;;;;;;;;;;;8.30;62.51;102211.34;464599;114;921525;-81
2021/09/08 02:41:50;;;;;;;;;;;;;;;8.32;62.39;102214.73;464827;113;921492;-81
2021/09/08 02:42:53;;;;;;;;;;;;;;;8.33;62.39;102212.86;465882;112;921592;-81
2021/09/08 02:43:56;;;;;;;;;;;;;;;8.34;62.24;102217.29;464420;114;921632;-81
2021/09/08 02:44:59;;;;;;;;;;;;;;;8.34;62.16;102209.99;465004;113;921630;-82
2021/09/08 02:46:03;;;;;;;;;;;;;;;8.33;62.04;102215.58;465249;112;921432;-80
2021/09/08 02:47:07;;;;;;;;;;;;;;;8.33;61.92;102215.58;465264;113;921577;-81
2021/09/08 02:48:10;;;;;;;;;;;;;;;8.30;61.88;102208.62;464938;114;921507;-80
2021/09/08 02:49:13;;;;;;;;;;;;;;;8.28;61.87;102207.02;465490;113;921599;-81
2021/09/08 02:50:16;;;;;;;;;;;;;;;8.26;61.88;102211.79;465193;112;921513;-82
2021/09/08 02:51:19;;;;;;;;;;;;;;;8.24;61.95;102209.22;464915;114;921448;-80
2021/09/08 02:52:23;;;;;;;;;;;;;;;8.26;61.98;102209.08;465815;114;921543;-81
2021/09/08 02:53:27;;;;;;;;;;;;;;;8.25;61.97;102208.22;464290;113;921670;-82
2021/09/08 02:54:30;;;;;;;;;;;;;;;8.23;61.90;102207.52;465241;114;921527;-81
2021/09/08 02:55:33;;;;;;;;;;;;;;;8.22;61.99;102210.38;464649;112;921667;-82
2021/09/08 02:56:37;;;;;;;;;;;;;;;8.17;61.94;102207.30;465364;114;921617;-81
2021/09/08 02:57:40;;;;;;;;;;;;;;;8.14;61.92;102204.91;464731;112;921646;-81
2021/09/08 02:58:43;;;;;;;;;;;;;;;8.08;61.91;102200.97;465897;112;921657;-81
2021/09/08 02:59:46;;;;;;;;;;;;;;;8.03;61.97;102208.73;464884;114;921625;-81
2021/09/08 03:00:49;;;;;;;;;;;;;;;8.00;61.98;102209.04;464043;112;921476;-81
2021/09/08 03:01:53;;;;;;;;;;;;;;;7.95;61.93;102209.52;465142;112;921561;-81
2021/09/08 03:02:57;;;;;;;;;;;;;;;7.93;61.92;102202.56;463959;113;921535;-81
2021/09/08 03:04:00;;;;;;;;;;;;;;;7.89;61.95;102204.72;465431;112;921609;-80
2021/09/08 03:05:04;;;;;;;;;;;;;;;7.87;61.97;102204.05;463329;113;921612;-80
2021/09/08 03:06:08;;;;;;;;;;;;;;;7.86;61.94;102205.05;454529;114;921738;-79
2021/09/08 03:07:11;;;;;;;;;;;;;;;7.84;61.89;102204.34;455588;114;922010;-81
2021/09/08 03:08:14;;;;;;;;;;;;;;;7.83;61.88;102210.77;464413;112;921557;-80
2021/09/08 03:09:17;;;;;;;;;;;;;;;7.79;61.88;102201.25;464327;114;921964;-82
2021/09/08 03:10:21;;;;;;;;;;;;;;;7.77;61.92;102213.29;465507;112;921755;-81
2021/09/08 03:11:26;;;;;;;;;;;;;;;7.75;62.00;102208.01;464907;114;921563;-81
2021/09/08 03:12:29;;;;;;;;;;;;;;;7.75;62.12;102210.72;465349;112;921488;-81
2021/09/08 03:13:32;;;;;;;;;;;;;;;7.76;62.31;102212.44;464372;112;921539;-82
2021/09/08 03:14:36;;;;;;;;;;;;;;;7.78;62.41;102209.54;464406;113;921655;-83
2021/09/08 03:15:39;;;;;;;;;;;;;;;7.79;62.35;102214.82;464197;113;921625;-81
2021/09/08 03:16:42;;;;;;;;;;;;;;;7.79;62.27;102209.39;465237;114;921236;-80
2021/09/08 03:17:46;;;;;;;;;;;;;;;7.80;62.23;102207.53;465553;112;921440;-81
2021/09/08 03:18:49;;;;;;;;;;;;;;;7.79;62.20;102209.39;464843;113;921636;-81
2021/09/08 03:19:52;;;;;;;;;;;;;;;7.81;62.18;102218.25;464470;114;921405;-83
2021/09/08 03:20:55;;;;;;;;;;;;;;;7.81;62.22;102214.67;464786;114;921536;-81
2021/09/08 03:21:59;;;;;;;;;;;;;;;7.81;62.18;102212.81;465168;112;921452;-81
2021/09/08 03:23:02;;;;;;;;;;;;;;;7.83;62.21;102212.63;463735;113;921695;-80
2021/09/08 03:24:06;;;;;;;;;;;;;;;7.83;62.17;102207.20;463875;114;921599;-81
2021/09/08 03:25:09;;;;;;;;;;;;;;;7.83;62.19;102210.77;466193;112;921594;-81
2021/09/08 03:26:14;;;;;;;;;;;;;;;7.83;62.33;102207.20;464097;113;921469;-81
2021/09/08 03:27:17;;;;;;;;;;;;;;;7.83;62.46;102208.06;464445;113;921537;-81
2021/09/08 03:28:20;;;;;;;;;;;;;;;7.85;62.49;102211.48;464401;113;922098;-81
2021/09/08 03:29:24;;;;;;;;;;;;;;;7.87;62.52;102209.47;465403;114;921823;-80
2021/09/08 03:30:28;;;;;;;;;;;;;;;7.90;62.39;102213.72;465519;113;921555;-80
2021/09/08 03:31:31;;;;;;;;;;;;;;;7.92;62.25;102203.56;464403;112;921557;-80
2021/09/08 03:32:34;;;;;;;;;;;;;;;7.94;62.18;102206.95;465916;114;921476;-80
2021/09/08 03:33:37;;;;;;;;;;;;;;;7.94;62.18;102209.67;465704;114;921626;-82
2021/09/08 03:34:40;;;;;;;;;;;;;;;7.94;62.18;102205.09;465365;113;921528;-81
2021/09/08 03:35:44;;;;;;;;;;;;;;;7.94;62.14;102204.23;465086;113;921526;-80
2021/09/08 03:36:48;;;;;;;;;;;;;;;7.93;62.17;102202.56;465476;112;921510;-82
2021/09/08 03:37:51;;;;;;;;;;;;;;;7.93;62.22;102208.84;465208;112;921603;-81
2021/09/08 03:38:54;;;;;;;;;;;;;;;7.92;62.22;102201.70;465341;112;921540;-81
2021/09/08 03:39:57;;;;;;;;;;;;;;;7.91;62.33;102205.42;465821;114;921425;-80
2021/09/08 03:41:01;;;;;;;;;;;;;;;7.92;62.38;102211.71;465204;114;921438;-79
2021/09/08 03:42:04;;;;;;;;;;;;;;;7.91;62.41;102210.86;464957;112;921482;-81
2021/09/08 03:43:07;;;;;;;;;;;;;;;7.92;62.48;102206.28;464618;113;921476;-80
2021/09/08 03:44:12;;;;;;;;;;;;;;;7.92;62.52;102200.84;463745;113;921685;-81
2021/09/08 03:45:16;;;;;;;;;;;;;;;7.92;62.56;102200.84;464693;114;921526;-81
2021/09/08 03:46:19;;;;;;;;;;;;;;;7.93;62.63;102199.84;464851;113;921925;-82
2021/09/08 03:47:22;;;;;;;;;;;;;;;7.93;62.66;102197.13;465894;113;921523;-81
2021/09/08 03:48:26;;;;;;;;;;;;;;;7.95;62.73;102195.09;464624;112;921741;-81
2021/09/08 03:49:29;;;;;;;;;;;;;;;7.98;62.71;102204.80;464746;113;921774;-81
2021/09/08 03:50:32;;;;;;;;;;;;;;;7.99;62.69;102198.36;463338;114;921657;-81
2021/09/08 03:51:36;;;;;;;;;;;;;;;8.00;62.67;102200.03;464919;113;921528;-80
2021/09/08 03:52:39;;;;;;;;;;;;;;;8.01;62.72;102199.03;465997;114;921556;-81
2021/09/08 03:53:42;;;;;;;;;;;;;;;8.00;62.75;102203.61;465520;113;921677;-80
2021/09/08 03:54:45;;;;;;;;;;;;;;;8.01;62.77;102199.03;464616;113;921661;-82
2021/09/08 03:55:48;;;;;;;;;;;;;;;7.99;62.74;102196.50;464979;114;921537;-81
2021/09/08 03:56:51;;;;;;;;;;;;;;;7.98;62.68;102199.36;464850;114;921591;-81
2021/09/08 03:57:54;;;;;;;;;;;;;;;7.95;62.78;102197.80;464789;112;921575;-81
2021/09/08 03:58:57;;;;;;;;;;;;;;;7.94;62.61;102194.23;464954;113;921690;-81
2021/09/08 04:00:01;;;;;;;;;;;;;;;7.93;62.63;102199.84;465013;112;921504;-81
2021/09/08 04:01:06;;;;;;;;;;;;;;;7.91;62.64;102199.99;465075;114;921562;-81
2021/09/08 04:02:09;;;;;;;;;;;;;;;7.90;62.64;102203.71;465052;113;921615;-82
2021/09/08 04:03:13;;;;;;;;;;;;;;;7.89;62.71;102203.86;464912;114;921592;-82
2021/09/08 04:04:17;;;;;;;;;;;;;;;7.89;62.86;102207.44;464913;114;921517;-81
2021/09/08 04:05:21;;;;;;;;;;;;;;;7.90;62.89;102197.42;464342;113;922154;-81
2021/09/08 04:06:24;;;;;;;;;;;;;;;7.91;63.03;102197.27;463445;113;921717;-82
2021/09/08 04:07:28;;;;;;;;;;;;;;;7.93;63.08;102203.41;464687;113;921490;-80
2021/09/08 04:08:31;;;;;;;;;;;;;;;7.96;63.17;102200.37;465463;114;921556;-80
2021/09/08 04:09:35;;;;;;;;;;;;;;;8.01;63.30;102205.31;464651;114;921552;-84
2021/09/08 04:10:38;;;;;;;;;;;;;;;8.04;63.31;102207.73;464379;114;921553;-81
2021/09/08 04:11:43;;;;;;;;;;;;;;;8.07;63.32;102198.40;465232;113;921551;-81
2021/09/08 04:12:46;;;;;;;;;;;;;;;8.10;63.31;102204.38;464457;113;921472;-82
2021/09/08 04:13:50;;;;;;;;;;;;;;;8.12;63.28;102209.64;465309;114;922100;-82
2021/09/08 04:14:53;;;;;;;;;;;;;;;8.12;63.21;102202.34;465903;114;921540;-82
2021/09/08 04:15:57;;;;;;;;;;;;;;;8.13;63.03;102204.05;465156;113;921377;-83
2021/09/08 04:17:01;;;;;;;;;;;;;;;8.12;62.86;102196.05;465020;114;922395;-80
2021/09/08 04:18:04;;;;;;;;;;;;;;;8.13;62.82;102204.05;465507;114;921466;-80
2021/09/08 04:19:07;;;;;;;;;;;;;;;8.14;62.79;102200.33;463965;113;921628;-80
2021/09/08 04:20:10;;;;;;;;;;;;;;;8.16;62.87;102192.85;464664;112;921673;-76
2021/09/08 04:21:14;;;;;;;;;;;;;;;8.18;62.88;102200.85;465276;112;921335;-78
2021/09/08 04:22:17;;;;;;;;;;;;;;;8.20;62.90;102204.27;464254;112;921592;-80
2021/09/08 04:23:20;;;;;;;;;;;;;;;8.22;62.90;102202.23;464729;112;921487;-80
2021/09/08 04:24:23;;;;;;;;;;;;;;;8.24;62.85;102206.50;464771;112;921543;-78
2021/09/08 04:25:27;;;;;;;;;;;;;;;8.25;62.78;102202.78;463686;112;921585;-78
2021/09/08 04:26:30;;;;;;;;;;;;;;;8.26;62.75;102209.93;464666;113;921686;-78
2021/09/08 04:27:33;;;;;;;;;;;;;;;8.27;62.77;102205.34;465786;112;921449;-81
2021/09/08 04:28:36;;;;;;;;;;;;;;;8.29;62.83;102198.72;464406;112;921490;-80
2021/09/08 04:29:39;;;;;;;;;;;;;;;8.30;62.84;102203.19;464447;111;921595;-79
2021/09/08 04:30:43;;;;;;;;;;;;;;;8.33;62.88;102207.43;468777;111;921610;-80
2021/09/08 04:31:46;;;;;;;;;;;;;;;8.35;62.87;102203.55;470291;111;921516;-79
2021/09/08 04:32:49;;;;;;;;;;;;;;;8.36;62.83;102197.11;469114;113;921745;-78
2021/09/08 04:33:56;;;;;;;;;;;;;;;8.39;62.87;102204.07;468508;111;921600;-79
2021/09/08 04:34:59;;;;;;;;;;;;;;;8.41;62.90;102201.20;469343;111;921606;-77
2021/09/08 04:36:03;;;;;;;;;;;;;;;8.43;62.96;102200.04;468804;113;921667;-77
2021/09/08 04:37:07;;;;;;;;;;;;;;;8.45;62.99;102210.73;468622;111;921647;-77
2021/09/08 04:38:10;;;;;;;;;;;;;;;8.47;63.00;102204.13;469303;111;921517;-78
2021/09/08 04:39:13;;;;;;;;;;;;;;;8.50;63.06;102201.08;468888;111;922047;-78
2021/09/08 04:40:16;;;;;;;;;;;;;;;8.53;63.14;102200.77;470066;111;921556;-79
2021/09/08 04:41:21;;;;;;;;;;;;;;;8.57;62.99;102202.14;469820;113;921519;-82
2021/09/08 04:42:24;;;;;;;;;;;;;;;8.60;62.94;102201.80;467916;111;921613;-80
2021/09/08 04:43:27;;;;;;;;;;;;;;;8.64;62.89;102200.48;469225;113;921592;-79
2021/09/08 04:44:31;;;;;;;;;;;;;;;8.68;62.83;102207.30;468569;113;921546;-77
2021/09/08 04:45:34;;;;;;;;;;;;;;;8.71;62.68;102206.95;467971;111;921577;-78
2021/09/08 04:46:39;;;;;;;;;;;;;;;8.73;62.47;102204.94;468929;111;921671;-79
2021/09/08 04:47:42;;;;;;;;;;;;;;;8.75;62.30;102211.08;470520;111;921577;-78
2021/09/08 04:48:45;;;;;;;;;;;;;;;8.77;62.21;102214.47;469739;111;921546;-78
2021/09/08 04:49:48;;;;;;;;;;;;;;;8.79;62.17;102215.16;468372;111;922016;-79
2021/09/08 04:50:52;;;;;;;;;;;;;;;8.81;62.13;102212.29;468920;113;921481;-79
2021/09/08 04:51:55;;;;;;;;;;;;;;;8.83;62.08;102212.95;469555;113;921406;-78
2021/09/08 04:52:58;;;;;;;;;;;;;;;8.85;62.01;102210.94;468887;111;921651;-77
2021/09/08 04:54:01;;;;;;;;;;;;;;;8.88;62.04;102209.73;468691;113;921929;-77
2021/09/08 04:55:06;;;;;;;;;;;;;;;8.89;61.91;102208.73;469915;111;921616;-79
2021/09/08 04:56:10;;;;;;;;;;;;;;;8.91;61.85;102209.43;470041;111;921753;-78
2021/09/08 04:57:13;;;;;;;;;;;;;;;8.92;61.83;102203.83;469314;111;921534;-78
2021/09/08 04:58:16;;;;;;;;;;;;;;;8.95;61.84;102214.38;469126;111;921692;-78
2021/09/08 04:59:19;;;;;;;;;;;;;;;8.98;61.88;102205.05;469666;113;921475;-78
2021/09/08 05:00:22;;;;;;;;;;;;;;;9.00;61.89;102202.98;469821;113;921849;-78
2021/09/08 05:01:25;;;;;;;;;;;;;;;9.01;61.86;102204.70;468921;111;921609;-79
2021/09/08 05:02:29;;;;;;;;;;;;;;;9.02;61.86;102203.69;469552;111;921528;-78
2021/09/08 05:03:33;;;;;;;;;;;;;;;9.04;61.85;102207.11;470373;113;921602;-77
2021/09/08 05:04:36;;;;;;;;;;;;;;;9.04;61.84;102207.93;469237;111;921489;-80
2021/09/08 05:05:39;;;;;;;;;;;;;;;9.05;61.81;102203.34;469744;111;921698;-77
2021/09/08 05:06:42;;;;;;;;;;;;;;;9.07;61.82;102204.05;468775;111;921579;-78
2021/09/08 05:07:46;;;;;;;;;;;;;;;9.08;61.90;102201.16;470295;111;921612;-79
2021/09/08 05:08:49;;;;;;;;;;;;;;;9.08;61.92;102201.16;469598;113;921542;-79
2021/09/08 05:09:52;;;;;;;;;;;;;;;9.10;61.93;102203.70;468056;113;921533;-79
2021/09/08 05:10:56;;;;;;;;;;;;;;;9.11;62.04;102199.96;468435;111;921620;-79
2021/09/08 05:11:59;;;;;;;;;;;;;;;9.13;62.07;102206.10;469555;113;921595;-79
2021/09/08 05:13:02;;;;;;;;;;;;;;;9.15;62.07;102204.08;469588;111;921515;-79
2021/09/08 05:14:06;;;;;;;;;;;;;;;9.16;62.09;102208.48;469092;111;921516;-78
2021/09/08 05:15:09;;;;;;;;;;;;;;;9.17;62.10;102213.77;470223;111;921438;-79
2021/09/08 05:16:14;;;;;;;;;;;;;;;9.17;62.08;102216.48;468928;113;921950;-79
2021/09/08 05:17:18;;;;;;;;;;;;;;;9.20;62.06;102207.16;460694;113;921608;-79
2021/09/08 05:18:21;;;;;;;;;;;;;;;9.21;61.98;102211.55;448855;116;921761;-78
2021/09/08 05:19:24;;;;;;;;;;;;;;;9.23;61.90;102211.39;452703;116;921422;-79
2021/09/08 05:20:28;;;;;;;;;;;;;;;9.26;61.83;102211.08;457159;115;921518;-78
2021/09/08 05:21:32;;;;;;;;;;;;;;;9.30;61.74;102212.44;456045;114;921579;-79
2021/09/08 05:22:35;;;;;;;;;;;;;;;9.30;61.73;102209.72;457876;116;921623;-78
2021/09/08 05:23:39;;;;;;;;;;;;;;;9.32;61.79;102204.97;457379;116;921708;-77
2021/09/08 05:24:44;;;;;;;;;;;;;;;9.34;61.71;102209.21;456914;114;921648;-78
2021/09/08 05:25:47;;;;;;;;;;;;;;;9.37;61.70;102202.59;457986;114;921997;-80